createdAt,value
2023-05-25T00:00:19.984Z, 36.27
2023-05-25T00:01:20.036Z, 36.26
2023-05-25T00:02:20.052Z, 36.24
2023-05-25T00:03:20.189Z, 36.22
2023-05-25T00:04:20.061Z, 36.21
2023-05-25T00:05:20.085Z, 36.20
2023-05-25T00:06:20.051Z, 36.19
2023-05-25T00:07:20.047Z, 36.18
2023-05-25T00:08:20.046Z, 36.17
2023-05-25T00:09:20.042Z, 36.14
2023-05-25T00:10:20.116Z, 36.12
2023-05-25T00:11:20.087Z, 36.10
2023-05-25T00:12:20.099Z, 36.11
2023-05-25T00:13:20.097Z, 36.11
2023-05-25T00:14:20.087Z, 36.09
2023-05-25T00:15:20.176Z, 36.06
2023-05-25T00:16:20.159Z, 36.04
2023-05-25T00:17:20.164Z, 36.07
2023-05-25T00:18:20.155Z, 36.05
2023-05-25T00:19:20.162Z, 36.03
2023-05-25T00:20:20.312Z, 36.00
2023-05-25T00:21:20.232Z, 36.04
2023-05-25T00:22:20.276Z, 36.01
2023-05-25T00:23:20.261Z, 35.97
2023-05-25T00:24:20.252Z, 35.97
2023-05-25T00:25:20.316Z, 35.97
2023-05-25T00:26:20.290Z, 35.97
2023-05-25T00:27:20.355Z, 36.03
2023-05-25T00:28:20.331Z, 36.01
2023-05-25T00:29:20.377Z, 35.96
2023-05-25T00:30:20.393Z, 35.92
2023-05-25T00:31:20.393Z, 35.88
2023-05-25T00:32:20.342Z, 35.89
2023-05-25T00:33:20.357Z, 35.88
2023-05-25T00:34:20.419Z, 35.86
2023-05-25T00:35:20.443Z, 35.86
2023-05-25T00:36:20.456Z, 35.84
2023-05-25T00:37:20.427Z, 35.80
2023-05-25T00:38:20.468Z, 35.80
2023-05-25T00:39:20.471Z, 35.75
2023-05-25T00:40:20.453Z, 35.77
2023-05-25T00:41:20.454Z, 35.77
2023-05-25T00:42:20.451Z, 35.79
2023-05-25T00:43:20.495Z, 35.81
2023-05-25T00:44:20.480Z, 35.83
2023-05-25T00:45:20.583Z, 35.80
2023-05-25T00:46:20.595Z, 35.78
2023-05-25T00:47:20.561Z, 35.80
2023-05-25T00:48:20.612Z, 35.77
2023-05-25T00:49:20.578Z, 35.77
2023-05-25T00:50:20.653Z, 35.73
2023-05-25T00:51:20.621Z, 35.70
2023-05-25T00:52:20.639Z, 35.68
2023-05-25T00:53:20.622Z, 35.69
2023-05-25T00:54:20.669Z, 35.64
2023-05-25T00:55:20.658Z, 35.66
2023-05-25T00:56:20.752Z, 35.66
2023-05-25T00:57:20.697Z, 35.68
2023-05-25T00:58:20.690Z, 35.65
2023-05-25T00:59:20.772Z, 35.63
2023-05-25T01:00:20.737Z, 35.62
2023-05-25T01:01:20.812Z, 35.62
2023-05-25T01:02:20.846Z, 35.60
2023-05-25T01:03:21.082Z, 35.58
2023-05-25T01:04:20.772Z, 35.58
2023-05-25T01:05:20.830Z, 35.58
2023-05-25T01:06:20.815Z, 35.54
2023-05-25T01:07:20.828Z, 35.55
2023-05-25T01:08:20.841Z, 35.53
2023-05-25T01:09:20.812Z, 35.51
2023-05-25T01:10:20.869Z, 35.52
2023-05-25T01:11:20.865Z, 35.48
2023-05-25T01:12:20.934Z, 35.50
2023-05-25T01:13:20.891Z, 35.52
2023-05-25T01:14:20.930Z, 35.51
2023-05-25T01:15:20.908Z, 35.51
2023-05-25T01:16:20.951Z, 35.47
2023-05-25T01:17:20.948Z, 35.46
2023-05-25T01:18:20.933Z, 35.46
2023-05-25T01:19:21.017Z, 35.47
2023-05-25T01:20:21.025Z, 35.44
2023-05-25T01:21:21.037Z, 35.47
2023-05-25T01:22:21.005Z, 35.43
2023-05-25T01:23:21.056Z, 35.42
2023-05-25T01:24:21.030Z, 35.39
2023-05-25T01:25:21.046Z, 35.36
2023-05-25T01:26:21.032Z, 35.37
2023-05-25T01:27:21.033Z, 35.37
2023-05-25T01:28:21.082Z, 35.40
2023-05-25T01:29:21.068Z, 35.35
2023-05-25T01:30:21.105Z, 35.33
2023-05-25T01:31:21.097Z, 35.30
2023-05-25T01:32:21.158Z, 35.31
2023-05-25T01:33:21.183Z, 35.27
2023-05-25T01:34:21.122Z, 35.29
2023-05-25T01:35:21.130Z, 35.25
2023-05-25T01:36:21.145Z, 35.27
2023-05-25T01:37:21.143Z, 35.27
2023-05-25T01:38:21.164Z, 35.26
2023-05-25T01:39:21.243Z, 35.26
2023-05-25T01:40:21.239Z, 35.24
2023-05-25T01:41:21.285Z, 35.22
2023-05-25T01:42:21.257Z, 35.21
2023-05-25T01:43:21.250Z, 35.19
2023-05-25T01:44:21.255Z, 35.17
2023-05-25T01:45:21.254Z, 35.14
2023-05-25T01:46:21.341Z, 35.15
2023-05-25T01:47:21.318Z, 35.12
2023-05-25T01:48:21.309Z, 35.13
2023-05-25T01:49:21.316Z, 35.08
2023-05-25T01:50:21.303Z, 35.09
2023-05-25T01:51:21.373Z, 35.09
2023-05-25T01:52:21.417Z, 35.09
2023-05-25T01:53:21.392Z, 35.06
2023-05-25T01:54:21.402Z, 35.09
2023-05-25T01:55:21.372Z, 35.08
2023-05-25T01:56:21.418Z, 35.05
2023-05-25T01:57:21.410Z, 35.05
2023-05-25T01:58:21.452Z, 35.04
2023-05-25T01:59:21.448Z, 35.06
2023-05-25T02:00:21.436Z, 35.07
2023-05-25T02:01:21.480Z, 35.02
2023-05-25T02:02:21.473Z, 35.01
2023-05-25T02:03:21.502Z, 35.02
2023-05-25T02:04:21.578Z, 35.00
2023-05-25T02:05:21.521Z, 34.99
2023-05-25T02:06:21.563Z, 34.98
2023-05-25T02:07:21.558Z, 34.97
2023-05-25T02:08:21.588Z, 34.98
2023-05-25T02:09:21.577Z, 34.97
2023-05-25T02:10:21.626Z, 35.02
2023-05-25T02:11:21.601Z, 34.97
2023-05-25T02:12:21.619Z, 34.94
2023-05-25T02:13:21.605Z, 34.91
2023-05-25T02:14:21.604Z, 34.91
2023-05-25T02:15:21.642Z, 34.89
2023-05-25T02:16:21.703Z, 34.87
2023-05-25T02:17:21.729Z, 34.86
2023-05-25T02:18:21.677Z, 34.88
2023-05-25T02:19:21.729Z, 34.85
2023-05-25T02:20:21.809Z, 34.85
2023-05-25T02:21:21.726Z, 34.83
2023-05-25T02:22:21.720Z, 34.82
2023-05-25T02:23:21.760Z, 34.80
2023-05-25T02:24:21.727Z, 34.82
2023-05-25T02:25:21.756Z, 34.81
2023-05-25T02:26:21.821Z, 34.80
2023-05-25T02:27:21.807Z, 34.83
2023-05-25T02:28:21.880Z, 34.79
2023-05-25T02:29:21.825Z, 34.77
2023-05-25T02:30:21.835Z, 34.79
2023-05-25T02:31:21.853Z, 34.77
2023-05-25T02:32:21.866Z, 34.75
2023-05-25T02:33:21.939Z, 34.72
2023-05-25T02:34:21.897Z, 34.74
2023-05-25T02:35:21.957Z, 34.70
2023-05-25T02:36:21.922Z, 34.69
2023-05-25T02:37:21.941Z, 34.71
2023-05-25T02:38:21.929Z, 34.71
2023-05-25T02:39:21.947Z, 34.67
2023-05-25T02:40:21.950Z, 34.66
2023-05-25T02:41:21.984Z, 34.66
2023-05-25T02:42:21.965Z, 34.66
2023-05-25T02:43:21.970Z, 34.62
2023-05-25T02:44:21.981Z, 34.61
2023-05-25T02:45:21.977Z, 34.63
2023-05-25T02:46:22.060Z, 34.62
2023-05-25T02:47:22.053Z, 34.61
2023-05-25T02:48:22.037Z, 34.59
2023-05-25T02:49:22.042Z, 34.55
2023-05-25T02:50:22.068Z, 34.58
2023-05-25T02:51:22.052Z, 34.57
2023-05-25T02:52:22.105Z, 34.56
2023-05-25T02:53:22.090Z, 34.53
2023-05-25T02:54:22.123Z, 34.52
2023-05-25T02:55:22.115Z, 34.50
2023-05-25T02:56:22.121Z, 34.51
2023-05-25T02:57:22.222Z, 34.50
2023-05-25T02:58:22.201Z, 34.49
2023-05-25T02:59:22.217Z, 34.49
2023-05-25T03:00:22.206Z, 34.47
2023-05-25T03:01:22.283Z, 34.50
2023-05-25T03:02:22.226Z, 34.50
2023-05-25T03:03:22.253Z, 34.46
2023-05-25T03:04:22.278Z, 34.45
2023-05-25T03:05:22.293Z, 34.48
2023-05-25T03:06:22.316Z, 34.44
2023-05-25T03:07:22.295Z, 34.41
2023-05-25T03:08:22.301Z, 34.42
2023-05-25T03:09:22.294Z, 34.37
2023-05-25T03:10:22.287Z, 34.34
2023-05-25T03:11:22.360Z, 34.37
2023-05-25T03:12:22.341Z, 34.41
2023-05-25T03:13:22.329Z, 34.38
2023-05-25T03:14:22.330Z, 34.37
2023-05-25T03:15:22.355Z, 34.35
2023-05-25T03:16:22.387Z, 34.33
2023-05-25T03:17:22.450Z, 34.32
2023-05-25T03:18:22.441Z, 34.31
2023-05-25T03:19:22.424Z, 34.32
2023-05-25T03:20:22.517Z, 34.32
2023-05-25T03:21:22.465Z, 34.31
2023-05-25T03:22:22.459Z, 34.30
2023-05-25T03:23:22.517Z, 34.28
2023-05-25T03:24:22.481Z, 34.29
2023-05-25T03:25:22.557Z, 34.24
2023-05-25T03:26:22.553Z, 34.22
2023-05-25T03:27:22.557Z, 34.21
2023-05-25T03:28:22.535Z, 34.17
2023-05-25T03:29:22.540Z, 34.18
2023-05-25T03:30:22.598Z, 34.20
2023-05-25T03:31:22.591Z, 34.50
2023-05-25T03:32:22.708Z, 35.29
2023-05-25T03:33:22.581Z, 36.98
2023-05-25T03:34:22.589Z, 38.75
2023-05-25T03:35:22.586Z, 39.89
2023-05-25T03:36:22.613Z, 40.81
2023-05-25T03:37:22.697Z, 41.57
2023-05-25T03:38:22.646Z, 42.13
2023-05-25T03:39:22.731Z, 42.52
2023-05-25T03:40:22.731Z, 42.73
2023-05-25T03:41:22.709Z, 43.01
2023-05-25T03:42:22.698Z, 43.39
2023-05-25T03:43:22.712Z, 43.76
2023-05-25T03:44:22.791Z, 44.14
2023-05-25T03:45:22.771Z, 44.54
2023-05-25T03:46:22.958Z, 44.87
2023-05-25T03:47:22.851Z, 45.23
2023-05-25T03:48:22.842Z, 45.55
2023-05-25T03:49:22.825Z, 45.79
2023-05-25T03:50:22.822Z, 46.01
2023-05-25T03:51:22.829Z, 46.07
2023-05-25T03:52:22.856Z, 46.12
2023-05-25T03:53:22.874Z, 46.23
2023-05-25T03:54:22.853Z, 46.36
2023-05-25T03:55:22.855Z, 46.50
2023-05-25T03:56:22.854Z, 46.64
2023-05-25T03:57:22.922Z, 46.69
2023-05-25T03:58:22.887Z, 46.62
2023-05-25T03:59:22.908Z, 46.52
2023-05-25T04:00:22.900Z, 46.64
2023-05-25T04:01:22.918Z, 47.11
2023-05-25T04:02:23.104Z, 47.46
2023-05-25T04:03:23.265Z, 47.70
2023-05-25T04:04:22.979Z, 47.57
2023-05-25T04:05:22.970Z, 47.45
2023-05-25T04:06:22.990Z, 47.40
2023-05-25T04:07:23.000Z, 47.45
2023-05-25T04:08:23.003Z, 47.56
2023-05-25T04:09:23.022Z, 47.65
2023-05-25T04:10:23.033Z, 47.73
2023-05-25T04:11:23.064Z, 47.86
2023-05-25T04:12:23.064Z, 47.90
2023-05-25T04:13:23.083Z, 47.85
2023-05-25T04:14:23.083Z, 47.70
2023-05-25T04:15:23.185Z, 47.44
2023-05-25T04:16:23.285Z, 47.17
2023-05-25T04:17:23.179Z, 46.94
2023-05-25T04:18:23.186Z, 46.78
2023-05-25T04:19:23.170Z, 46.69
2023-05-25T04:20:23.239Z, 46.54
2023-05-25T04:21:23.228Z, 46.46
2023-05-25T04:22:23.216Z, 46.36
2023-05-25T04:23:23.240Z, 46.28
2023-05-25T04:24:23.220Z, 46.21
2023-05-25T04:25:23.224Z, 46.15
2023-05-25T04:26:23.231Z, 46.01
2023-05-25T04:27:23.218Z, 45.97
2023-05-25T04:28:23.261Z, 45.91
2023-05-25T04:29:23.267Z, 45.83
2023-05-25T04:30:23.284Z, 45.82
2023-05-25T04:31:23.326Z, 45.77
2023-05-25T04:32:23.322Z, 45.72
2023-05-25T04:33:23.368Z, 45.69
2023-05-25T04:34:23.355Z, 45.70
2023-05-25T04:35:23.393Z, 45.62
2023-05-25T04:36:23.367Z, 45.65
2023-05-25T04:37:23.360Z, 45.58
2023-05-25T04:38:23.362Z, 45.55
2023-05-25T04:39:23.372Z, 45.50
2023-05-25T04:40:23.394Z, 45.42
2023-05-25T04:41:23.418Z, 45.36
2023-05-25T04:42:23.415Z, 45.35
2023-05-25T04:43:23.426Z, 45.33
2023-05-25T04:44:23.435Z, 45.27
2023-05-25T04:45:23.455Z, 45.32
2023-05-25T04:46:23.649Z, 45.25
2023-05-25T04:47:23.538Z, 45.24
2023-05-25T04:48:23.502Z, 45.15
2023-05-25T04:49:23.503Z, 45.12
2023-05-25T04:50:23.509Z, 45.11
2023-05-25T04:51:23.505Z, 45.09
2023-05-25T04:52:23.522Z, 45.11
2023-05-25T04:53:23.516Z, 45.06
2023-05-25T04:54:23.551Z, 44.97
2023-05-25T04:55:23.642Z, 44.93
2023-05-25T04:56:23.611Z, 44.94
2023-05-25T04:57:23.662Z, 44.98
2023-05-25T04:58:23.639Z, 44.96
2023-05-25T04:59:23.685Z, 45.04
2023-05-25T05:00:23.664Z, 45.00
2023-05-25T05:01:23.734Z, 44.95
2023-05-25T05:02:23.704Z, 44.85
2023-05-25T05:03:23.806Z, 44.87
2023-05-25T05:04:23.694Z, 44.80
2023-05-25T05:05:23.695Z, 44.89
2023-05-25T05:06:23.706Z, 44.84
2023-05-25T05:07:23.724Z, 44.67
2023-05-25T05:08:23.820Z, 44.57
2023-05-25T05:09:23.781Z, 44.62
2023-05-25T05:10:23.796Z, 44.58
2023-05-25T05:11:23.799Z, 44.52
2023-05-25T05:12:23.839Z, 44.52
2023-05-25T05:13:23.821Z, 44.53
2023-05-25T05:14:23.818Z, 44.69
2023-05-25T05:15:23.836Z, 44.89
2023-05-25T05:16:23.844Z, 45.04
2023-05-25T05:17:23.904Z, 45.06
2023-05-25T05:18:23.886Z, 45.39
2023-05-25T05:19:23.957Z, 45.37
2023-05-25T05:20:23.963Z, 45.17
2023-05-25T05:21:23.932Z, 45.00
2023-05-25T05:22:23.924Z, 44.89
2023-05-25T05:23:23.926Z, 44.74
2023-05-25T05:24:23.999Z, 44.64
2023-05-25T05:25:23.973Z, 44.54
2023-05-25T05:26:23.978Z, 44.45
2023-05-25T05:27:23.973Z, 44.40
2023-05-25T05:28:23.983Z, 44.30
2023-05-25T05:29:24.003Z, 44.26
2023-05-25T05:30:24.083Z, 44.20
2023-05-25T05:31:24.119Z, 44.14
2023-05-25T05:32:24.146Z, 44.12
2023-05-25T05:33:24.182Z, 44.13
2023-05-25T05:34:24.155Z, 44.10
2023-05-25T05:35:24.104Z, 44.17
2023-05-25T05:36:24.110Z, 44.08
2023-05-25T05:37:24.107Z, 44.02
2023-05-25T05:38:24.119Z, 44.03
2023-05-25T05:39:24.120Z, 43.95
2023-05-25T05:40:24.123Z, 43.89
2023-05-25T05:41:24.146Z, 43.92
2023-05-25T05:42:24.157Z, 43.91
2023-05-25T05:43:24.147Z, 43.90
2023-05-25T05:44:27.794Z, 43.83
2023-05-25T05:45:24.184Z, 43.82
2023-05-25T05:46:24.208Z, 43.78
2023-05-25T05:47:24.228Z, 43.79
2023-05-25T05:48:24.211Z, 43.74
2023-05-25T05:49:24.229Z, 43.74
2023-05-25T05:50:24.252Z, 43.72
2023-05-25T05:51:24.273Z, 43.75
2023-05-25T05:52:24.296Z, 43.72
2023-05-25T05:53:24.371Z, 43.75
2023-05-25T05:54:24.339Z, 43.67
2023-05-25T05:55:24.387Z, 43.63
2023-05-25T05:56:24.378Z, 43.59
2023-05-25T05:57:24.387Z, 43.64
2023-05-25T05:58:24.383Z, 43.65
2023-05-25T05:59:24.437Z, 43.60
2023-05-25T06:00:24.414Z, 43.59
2023-05-25T06:01:24.396Z, 43.51
2023-05-25T06:02:24.572Z, 43.56
2023-05-25T06:03:24.464Z, 43.50
2023-05-25T06:04:24.486Z, 43.41
2023-05-25T06:05:24.473Z, 43.38
2023-05-25T06:06:24.471Z, 43.43
2023-05-25T06:07:24.470Z, 43.38
2023-05-25T06:08:24.468Z, 43.37
2023-05-25T06:09:24.477Z, 43.40
2023-05-25T06:10:24.487Z, 43.38
2023-05-25T06:11:24.508Z, 43.33
2023-05-25T06:12:24.495Z, 43.28
2023-05-25T06:13:24.539Z, 43.22
2023-05-25T06:14:26.726Z, 43.20
2023-05-25T06:15:24.541Z, 43.19
2023-05-25T06:16:24.620Z, 43.11
2023-05-25T06:17:24.611Z, 43.07
2023-05-25T06:18:24.641Z, 43.09
2023-05-25T06:19:24.628Z, 43.07
2023-05-25T06:20:24.754Z, 43.05
2023-05-25T06:21:24.684Z, 43.02
2023-05-25T06:22:24.697Z, 42.96
2023-05-25T06:23:24.679Z, 42.97
2023-05-25T06:24:24.737Z, 42.90
2023-05-25T06:25:24.745Z, 42.91
2023-05-25T06:26:24.719Z, 42.87
2023-05-25T06:27:24.713Z, 42.80
2023-05-25T06:28:24.712Z, 42.81
2023-05-25T06:29:24.740Z, 42.74
2023-05-25T06:30:24.711Z, 42.71
2023-05-25T06:31:24.818Z, 42.64
2023-05-25T06:32:24.778Z, 42.68
2023-05-25T06:33:24.866Z, 42.66
2023-05-25T06:34:24.807Z, 42.69
2023-05-25T06:35:24.785Z, 42.61
2023-05-25T06:36:24.806Z, 42.60
2023-05-25T06:37:24.819Z, 42.63
2023-05-25T06:38:24.830Z, 42.57
2023-05-25T06:39:24.834Z, 42.55
2023-05-25T06:40:24.917Z, 42.52
2023-05-25T06:41:24.878Z, 42.45
2023-05-25T06:42:24.961Z, 42.48
2023-05-25T06:43:24.949Z, 42.47
2023-05-25T06:44:24.977Z, 42.48
2023-05-25T06:45:24.945Z, 42.41
2023-05-25T06:46:25.035Z, 42.38
2023-05-25T06:47:25.007Z, 42.39
2023-05-25T06:48:24.965Z, 42.43
2023-05-25T06:49:24.967Z, 42.41
2023-05-25T06:50:24.972Z, 42.32
2023-05-25T06:51:25.066Z, 42.30
2023-05-25T06:52:25.017Z, 42.31
2023-05-25T06:53:25.103Z, 42.29
2023-05-25T06:54:25.069Z, 42.32
2023-05-25T06:55:25.067Z, 42.26
2023-05-25T06:56:25.097Z, 42.20
2023-05-25T06:57:25.077Z, 42.13
2023-05-25T06:58:25.117Z, 42.09
2023-05-25T06:59:25.123Z, 42.03
2023-05-25T07:00:25.145Z, 42.04
2023-05-25T07:01:25.204Z, 42.04
2023-05-25T07:02:25.212Z, 41.96
2023-05-25T07:03:25.160Z, 41.95
2023-05-25T07:04:25.162Z, 41.89
2023-05-25T07:05:25.240Z, 41.91
2023-05-25T07:06:25.171Z, 41.90
2023-05-25T07:07:25.170Z, 41.93
2023-05-25T07:08:25.182Z, 41.91
2023-05-25T07:09:25.200Z, 41.93
2023-05-25T07:10:25.234Z, 41.84
2023-05-25T07:11:25.229Z, 41.75
2023-05-25T07:12:25.234Z, 41.70
2023-05-25T07:13:25.298Z, 41.72
2023-05-25T07:14:25.277Z, 41.74
2023-05-25T07:15:25.302Z, 41.81
2023-05-25T07:16:25.328Z, 41.77
2023-05-25T07:17:25.454Z, 41.68
2023-05-25T07:18:25.304Z, 41.60
2023-05-25T07:19:25.318Z, 41.58
2023-05-25T07:20:25.465Z, 41.64
2023-05-25T07:21:25.356Z, 41.61
2023-05-25T07:22:25.351Z, 41.59
2023-05-25T07:23:25.350Z, 41.55
2023-05-25T07:24:25.368Z, 41.48
2023-05-25T07:25:25.378Z, 41.48
2023-05-25T07:26:25.477Z, 41.53
2023-05-25T07:27:25.487Z, 41.51
2023-05-25T07:28:25.497Z, 41.44
2023-05-25T07:29:25.455Z, 41.42
2023-05-25T07:30:25.488Z, 41.43
2023-05-25T07:31:25.498Z, 41.49
2023-05-25T07:32:25.538Z, 41.43
2023-05-25T07:33:25.493Z, 41.40
2023-05-25T07:34:27.680Z, 41.39
2023-05-25T07:35:25.570Z, 41.37
2023-05-25T07:36:25.560Z, 41.31
2023-05-25T07:37:25.628Z, 41.32
2023-05-25T07:38:25.602Z, 41.27
2023-05-25T07:39:25.580Z, 41.26
2023-05-25T07:40:25.582Z, 41.27
2023-05-25T07:41:25.575Z, 41.18
2023-05-25T07:42:25.592Z, 41.11
2023-05-25T07:43:25.612Z, 41.16
2023-05-25T07:44:25.633Z, 41.14
2023-05-25T07:45:25.626Z, 41.09
2023-05-25T07:46:25.751Z, 41.07
2023-05-25T07:47:25.746Z, 41.08
2023-05-25T07:48:25.689Z, 41.03
2023-05-25T07:49:25.707Z, 41.06
2023-05-25T07:50:25.783Z, 41.02
2023-05-25T07:51:25.743Z, 40.99
2023-05-25T07:52:25.741Z, 40.95
2023-05-25T07:53:25.808Z, 40.92
2023-05-25T07:54:25.813Z, 40.86
2023-05-25T07:55:25.835Z, 40.86
2023-05-25T07:56:25.819Z, 40.88
2023-05-25T07:57:25.874Z, 40.83
2023-05-25T07:58:25.852Z, 40.82
2023-05-25T07:59:25.881Z, 40.82
2023-05-25T08:00:25.862Z, 40.76
2023-05-25T08:01:27.033Z, 40.78
2023-05-25T08:02:25.984Z, 40.81
2023-05-25T08:03:39.849Z, 40.76
2023-05-25T08:04:25.992Z, 40.78
2023-05-25T08:05:25.909Z, 40.76
2023-05-25T08:06:25.928Z, 40.69
2023-05-25T08:07:25.907Z, 40.61
2023-05-25T08:08:25.917Z, 40.64
2023-05-25T08:09:25.985Z, 40.64
2023-05-25T08:10:25.974Z, 40.58
2023-05-25T08:11:26.031Z, 40.50
2023-05-25T08:12:46.178Z, 40.43
2023-05-25T08:13:26.020Z, 40.48
2023-05-25T08:14:26.006Z, 40.47
2023-05-25T08:15:26.034Z, 40.49
2023-05-25T08:16:26.039Z, 40.50
2023-05-25T08:17:26.097Z, 40.46
2023-05-25T08:18:26.056Z, 40.43
2023-05-25T08:19:26.081Z, 40.44
2023-05-25T08:20:26.295Z, 40.42
2023-05-25T08:21:26.071Z, 40.36
2023-05-25T08:22:26.161Z, 40.38
2023-05-25T08:23:26.146Z, 40.37
2023-05-25T08:24:26.155Z, 40.31
2023-05-25T08:25:26.145Z, 40.27
2023-05-25T08:26:38.415Z, 40.25
2023-05-25T08:27:26.155Z, 40.24
2023-05-25T08:28:26.166Z, 40.21
2023-05-25T08:29:26.183Z, 40.17
2023-05-25T08:30:26.226Z, 40.22
2023-05-25T08:31:26.268Z, 40.15
2023-05-25T08:32:26.262Z, 40.12
2023-05-25T08:33:26.380Z, 40.04
2023-05-25T08:34:26.250Z, 40.12
2023-05-25T08:35:26.284Z, 40.05
2023-05-25T08:36:26.281Z, 40.04
2023-05-25T08:37:26.346Z, 40.02
2023-05-25T08:38:26.287Z, 40.01
2023-05-25T08:39:26.307Z, 40.01
2023-05-25T08:40:26.413Z, 39.98
2023-05-25T08:41:26.378Z, 39.95
2023-05-25T08:42:26.461Z, 39.96
2023-05-25T08:43:26.404Z, 39.93
2023-05-25T08:44:26.442Z, 39.92
2023-05-25T08:45:34.086Z, 39.88
2023-05-25T08:46:26.486Z, 39.90
2023-05-25T08:47:26.499Z, 39.90
2023-05-25T08:48:39.482Z, 39.85
2023-05-25T08:49:26.555Z, 39.78
2023-05-25T08:50:26.457Z, 39.73
2023-05-25T08:51:26.459Z, 39.74
2023-05-25T08:52:26.480Z, 39.68
2023-05-25T08:53:26.563Z, 39.71
2023-05-25T08:54:26.545Z, 39.68
2023-05-25T08:55:26.534Z, 39.65
2023-05-25T08:56:26.585Z, 39.66
2023-05-25T08:57:26.537Z, 39.69
2023-05-25T08:58:26.546Z, 39.62
2023-05-25T08:59:26.580Z, 39.65
2023-05-25T09:00:26.617Z, 39.62
2023-05-25T09:01:26.594Z, 39.59
2023-05-25T09:02:26.729Z, 39.55
2023-05-25T09:03:26.794Z, 39.58
2023-05-25T09:04:26.657Z, 39.63
2023-05-25T09:05:26.656Z, 39.59
2023-05-25T09:06:26.654Z, 39.55
2023-05-25T09:07:26.668Z, 39.51
2023-05-25T09:08:26.735Z, 39.47
2023-05-25T09:09:26.699Z, 39.41
2023-05-25T09:10:26.726Z, 39.37
2023-05-25T09:11:37.400Z, 39.39
2023-05-25T09:12:26.737Z, 39.39
2023-05-25T09:13:26.733Z, 39.38
2023-05-25T09:14:26.745Z, 39.39
2023-05-25T09:15:26.794Z, 39.38
2023-05-25T09:16:26.807Z, 39.36
2023-05-25T09:17:26.812Z, 39.32
2023-05-25T09:18:26.840Z, 39.33
2023-05-25T09:19:26.856Z, 39.26
2023-05-25T09:20:26.919Z, 39.24
2023-05-25T09:21:26.901Z, 39.25
2023-05-25T09:22:26.865Z, 39.21
2023-05-25T09:23:26.901Z, 39.20
2023-05-25T09:24:26.875Z, 39.16
2023-05-25T09:25:26.953Z, 39.17
2023-05-25T09:26:26.916Z, 39.15
2023-05-25T09:27:26.967Z, 39.12
2023-05-25T09:28:27.818Z, 39.10
2023-05-25T09:29:26.991Z, 39.12
2023-05-25T09:30:26.956Z, 39.12
2023-05-25T09:31:27.022Z, 39.08
2023-05-25T09:32:27.316Z, 39.05
2023-05-25T09:33:26.994Z, 39.03
2023-05-25T09:34:26.991Z, 38.98
2023-05-25T09:35:27.002Z, 38.97
2023-05-25T09:36:27.141Z, 38.99
2023-05-25T09:37:27.315Z, 38.99
2023-05-25T09:38:27.533Z, 38.95
2023-05-25T09:39:27.170Z, 38.97
2023-05-25T09:40:27.123Z, 38.95
2023-05-25T09:41:27.093Z, 38.93
2023-05-25T09:42:27.169Z, 38.92
2023-05-25T09:43:40.547Z, 38.91
2023-05-25T09:44:27.138Z, 38.94
2023-05-25T09:45:27.143Z, 38.86
2023-05-25T09:46:27.161Z, 38.88
2023-05-25T09:47:27.173Z, 38.85
2023-05-25T09:48:27.206Z, 38.85
2023-05-25T09:49:27.178Z, 38.85
2023-05-25T09:50:27.183Z, 38.81
2023-05-25T09:51:27.265Z, 38.81
2023-05-25T09:52:27.256Z, 38.76
2023-05-25T09:53:27.313Z, 38.73
2023-05-25T09:54:27.285Z, 38.73
2023-05-25T09:55:31.688Z, 38.72
2023-05-25T09:56:27.278Z, 38.65
2023-05-25T09:57:27.339Z, 38.63
2023-05-25T09:58:27.335Z, 38.64
2023-05-25T09:59:27.358Z, 38.61
2023-05-25T10:00:27.346Z, 38.65
2023-05-25T10:01:27.440Z, 38.95
2023-05-25T10:02:27.399Z, 39.70
2023-05-25T10:03:27.369Z, 40.45
2023-05-25T10:04:27.484Z, 41.29
2023-05-25T10:05:27.419Z, 41.81
2023-05-25T10:06:27.415Z, 42.25
2023-05-25T10:07:27.411Z, 42.57
2023-05-25T10:08:29.081Z, 42.87
2023-05-25T10:09:27.448Z, 43.19
2023-05-25T10:10:27.519Z, 43.69
2023-05-25T10:11:27.500Z, 44.11
2023-05-25T10:12:27.488Z, 44.20
2023-05-25T10:13:27.485Z, 44.05
2023-05-25T10:15:27.525Z, 44.05
2023-05-25T10:16:27.690Z, 44.49
2023-05-25T10:17:27.668Z, 44.97
2023-05-25T10:18:27.585Z, 45.09
2023-05-25T10:19:27.632Z, 44.91
2023-05-25T10:20:29.716Z, 44.68
2023-05-25T10:21:27.652Z, 44.77
2023-05-25T10:22:27.620Z, 45.18
2023-05-25T10:23:27.627Z, 45.66
2023-05-25T10:24:27.722Z, 45.94
2023-05-25T10:25:27.714Z, 45.81
2023-05-25T10:26:27.696Z, 45.47
2023-05-25T10:27:28.130Z, 45.22
2023-05-25T10:28:27.688Z, 45.42
2023-05-25T10:29:27.729Z, 45.81
2023-05-25T10:30:27.715Z, 46.24
2023-05-25T10:31:28.073Z, 46.44
2023-05-25T10:32:27.763Z, 46.27
2023-05-25T10:33:27.764Z, 45.96
2023-05-25T10:34:27.754Z, 45.68
2023-05-25T10:35:27.883Z, 45.41
2023-05-25T10:36:27.804Z, 45.23
2023-05-25T10:37:27.785Z, 45.08
2023-05-25T10:38:27.797Z, 44.98
2023-05-25T10:39:27.793Z, 44.83
2023-05-25T10:40:27.885Z, 44.71
2023-05-25T10:41:27.885Z, 44.61
2023-05-25T10:42:27.978Z, 44.55
2023-05-25T10:43:27.892Z, 44.51
2023-05-25T10:44:27.924Z, 44.45
2023-05-25T10:45:27.913Z, 44.41
2023-05-25T10:46:28.006Z, 44.34
2023-05-25T10:47:27.997Z, 44.25
2023-05-25T10:48:27.938Z, 44.21
2023-05-25T10:49:27.951Z, 44.13
2023-05-25T10:50:27.946Z, 44.12
2023-05-25T10:51:27.949Z, 44.03
2023-05-25T10:52:27.973Z, 43.97
2023-05-25T10:53:28.045Z, 43.90
2023-05-25T10:54:28.012Z, 43.91
2023-05-25T10:55:28.065Z, 43.86
2023-05-25T10:56:28.041Z, 43.82
2023-05-25T10:57:28.035Z, 43.77
2023-05-25T10:58:28.038Z, 43.68
2023-05-25T10:59:28.041Z, 43.71
2023-05-25T11:00:28.139Z, 43.72
2023-05-25T11:01:28.211Z, 43.73
2023-05-25T11:02:28.118Z, 43.59
2023-05-25T11:03:28.084Z, 43.55
2023-05-25T11:04:28.139Z, 43.60
2023-05-25T11:05:28.092Z, 43.55
2023-05-25T11:06:28.119Z, 43.54
2023-05-25T11:07:28.199Z, 43.52
2023-05-25T11:08:28.226Z, 43.47
2023-05-25T11:09:28.187Z, 43.45
2023-05-25T11:10:28.193Z, 43.43
2023-05-25T11:11:28.208Z, 43.29
2023-05-25T11:12:28.204Z, 43.27
2023-05-25T11:13:28.222Z, 43.30
2023-05-25T11:14:28.230Z, 43.36
2023-05-25T11:15:28.237Z, 43.33
2023-05-25T11:16:28.322Z, 43.28
2023-05-25T11:17:28.300Z, 43.22
2023-05-25T11:18:28.356Z, 43.17
2023-05-25T11:19:28.353Z, 43.20
2023-05-25T11:20:28.435Z, 43.19
2023-05-25T11:21:28.378Z, 43.17
2023-05-25T11:22:28.399Z, 43.18
2023-05-25T11:23:28.376Z, 43.17
2023-05-25T11:24:28.393Z, 43.12
2023-05-25T11:25:28.369Z, 43.05
2023-05-25T11:26:28.374Z, 43.05
2023-05-25T11:27:28.379Z, 43.00
2023-05-25T11:28:28.388Z, 43.02
2023-05-25T11:29:28.442Z, 43.02
2023-05-25T11:30:28.457Z, 42.94
2023-05-25T11:31:28.585Z, 42.88
2023-05-25T11:32:28.679Z, 42.88
2023-05-25T11:33:28.461Z, 42.88
2023-05-25T11:34:28.524Z, 42.87
2023-05-25T11:35:28.529Z, 42.90
2023-05-25T11:36:28.584Z, 42.88
2023-05-25T11:37:28.556Z, 42.87
2023-05-25T11:38:28.572Z, 42.76
2023-05-25T11:39:28.560Z, 42.76
2023-05-25T11:40:28.603Z, 42.78
2023-05-25T11:41:28.587Z, 42.71
2023-05-25T11:42:28.590Z, 42.71
2023-05-25T11:43:28.591Z, 42.70
2023-05-25T11:44:28.595Z, 42.67
2023-05-25T11:45:28.620Z, 42.58
2023-05-25T11:46:28.651Z, 42.59
2023-05-25T11:47:30.137Z, 42.57
2023-05-25T11:48:28.685Z, 42.59
2023-05-25T11:49:28.741Z, 42.54
2023-05-25T11:50:28.699Z, 42.58
2023-05-25T11:51:28.688Z, 42.55
2023-05-25T11:52:28.693Z, 42.47
2023-05-25T11:53:28.693Z, 42.47
2023-05-25T11:54:28.715Z, 42.45
2023-05-25T11:55:28.705Z, 42.39
2023-05-25T11:56:35.751Z, 42.39
2023-05-25T11:57:28.730Z, 42.44
2023-05-25T11:58:28.799Z, 42.49
2023-05-25T11:59:30.783Z, 42.40
2023-05-25T12:00:28.762Z, 42.33
2023-05-25T12:01:28.797Z, 42.26
2023-05-25T12:02:28.858Z, 42.27
2023-05-25T12:03:28.924Z, 42.29
2023-05-25T12:04:29.142Z, 42.25
2023-05-25T12:05:29.059Z, 42.26
2023-05-25T12:06:28.974Z, 42.27
2023-05-25T12:07:28.867Z, 42.25
2023-05-25T12:08:28.872Z, 42.23
2023-05-25T12:09:28.905Z, 42.25
2023-05-25T12:10:28.907Z, 42.30
2023-05-25T12:11:28.982Z, 42.29
2023-05-25T12:12:28.947Z, 42.26
2023-05-25T12:13:29.035Z, 42.18
2023-05-25T12:14:28.993Z, 42.13
2023-05-25T12:15:28.992Z, 42.11
2023-05-25T12:16:29.089Z, 42.09
2023-05-25T12:17:29.014Z, 42.07
2023-05-25T12:18:28.993Z, 42.09
2023-05-25T12:19:28.998Z, 42.06
2023-05-25T12:20:29.102Z, 41.99
2023-05-25T12:21:29.052Z, 42.01
2023-05-25T12:22:29.120Z, 42.00
2023-05-25T12:23:29.065Z, 41.95
2023-05-25T12:24:29.123Z, 41.98
2023-05-25T12:25:38.769Z, 41.92
2023-05-25T12:26:29.088Z, 41.94
2023-05-25T12:27:29.087Z, 41.91
2023-05-25T12:28:29.106Z, 41.86
2023-05-25T12:29:29.201Z, 41.81